Terminal Aerodrome Forecast
Issued by NWS

Current Version | Previous Version | Graphics & Text | Print | Product List | Glossary On
Versions: 1 2 3 4 5 6 7 8 9 10 11 12 13 14 15 16 17 18 19 20 21 22
000
FTUS41 KPBZ 281800 AAA
TAFMGW
TAF AMD
KMGW 281827Z 2818/2918 29010G20KT P6SM VCSH SCT025 BKN035
      TEMPO 2818/2820 BKN025
     FM282200 30005KT P6SM BKN040=

USA.gov is the U.S. government's official web portal to all federal, state and local government web resources and services.